createdAt,value
2019-01-26T00:00:21.822Z,5.90
2019-01-26T00:02:53.033Z,5.90
2019-01-26T00:05:24.490Z,5.90
2019-01-26T00:07:55.373Z,5.90
2019-01-26T00:10:25.549Z,5.90
2019-01-26T00:12:55.665Z,5.90
2019-01-26T00:15:25.842Z,5.90
2019-01-26T00:17:56.001Z,5.90
2019-01-26T00:20:26.095Z,5.90
2019-01-26T00:22:56.575Z,5.90
2019-01-26T00:25:26.594Z,6.00
2019-01-26T00:27:58.092Z,6.00
2019-01-26T00:30:28.291Z,6.00
2019-01-26T00:32:58.700Z,6.00
2019-01-26T00:35:28.850Z,6.00
2019-01-26T00:37:58.948Z,6.00
2019-01-26T00:40:28.970Z,6.00
2019-01-26T00:42:59.011Z,6.00
2019-01-26T00:45:29.092Z,6.00
2019-01-26T00:47:59.135Z,6.00
2019-01-26T00:50:29.184Z,6.00
2019-01-26T00:52:59.259Z,5.90
2019-01-26T00:55:29.275Z,5.90
2019-01-26T00:57:59.398Z,5.90
2019-01-26T01:00:29.616Z,5.90
2019-01-26T01:03:00.521Z,5.80
2019-01-26T01:05:30.667Z,5.90
2019-01-26T01:08:00.840Z,5.90
2019-01-26T01:10:31.395Z,5.90
2019-01-26T01:13:01.472Z,5.90
2019-01-26T01:15:31.549Z,5.90
2019-01-26T01:18:01.681Z,5.90
2019-01-26T01:20:32.092Z,5.90
2019-01-26T01:23:02.139Z,5.90
2019-01-26T01:25:32.266Z,5.90
2019-01-26T01:28:02.575Z,5.90
2019-01-26T01:30:32.696Z,5.90
2019-01-26T01:33:02.929Z,5.90
2019-01-26T01:35:33.104Z,5.90
2019-01-26T01:38:03.318Z,5.90
2019-01-26T01:40:33.463Z,5.90
2019-01-26T01:43:03.654Z,5.90
2019-01-26T01:45:34.111Z,5.90
2019-01-26T01:48:04.167Z,6.00
2019-01-26T01:50:34.299Z,6.00
2019-01-26T01:53:04.439Z,6.10
2019-01-26T01:55:34.467Z,6.10
2019-01-26T01:58:04.612Z,6.10
2019-01-26T02:00:34.621Z,6.20
2019-01-26T02:03:04.665Z,6.10
2019-01-26T02:05:34.704Z,6.10
2019-01-26T02:08:04.871Z,6.00
2019-01-26T02:10:35.408Z,6.00
2019-01-26T02:13:05.480Z,6.00
2019-01-26T02:15:35.589Z,6.00
2019-01-26T02:18:05.748Z,6.10
2019-01-26T02:20:35.781Z,6.10
2019-01-26T02:23:05.937Z,6.20
2019-01-26T02:25:36.761Z,6.20
2019-01-26T02:28:06.849Z,6.30
2019-01-26T02:30:36.857Z,6.30
2019-01-26T02:33:07.036Z,6.30
2019-01-26T02:35:37.126Z,6.30
2019-01-26T02:38:07.157Z,6.30
2019-01-26T02:40:37.329Z,6.30
2019-01-26T02:43:07.536Z,6.20
2019-01-26T02:45:37.622Z,6.10
2019-01-26T02:48:08.154Z,6.10
2019-01-26T02:50:38.229Z,6.10
2019-01-26T02:53:08.393Z,6.00
2019-01-26T02:55:38.464Z,6.00
2019-01-26T02:58:08.773Z,6.00
2019-01-26T03:00:38.907Z,5.90
2019-01-26T03:03:09.109Z,5.90
2019-01-26T03:05:39.207Z,5.90
2019-01-26T03:08:09.239Z,5.80
2019-01-26T03:10:39.295Z,5.80
2019-01-26T03:13:09.343Z,5.80
2019-01-26T03:15:41.418Z,5.80
2019-01-26T03:18:11.234Z,5.80
2019-01-26T03:20:41.387Z,5.80
2019-01-26T03:23:11.474Z,5.80
2019-01-26T03:25:41.494Z,5.80
2019-01-26T03:28:12.733Z,5.90
2019-01-26T03:30:44.445Z,5.90
2019-01-26T03:33:14.876Z,6.00
2019-01-26T03:35:44.965Z,6.00
2019-01-26T03:38:15.066Z,6.00
2019-01-26T03:40:45.103Z,6.00
2019-01-26T03:43:15.242Z,6.10
2019-01-26T03:45:45.355Z,6.00
2019-01-26T03:48:15.606Z,6.00
2019-01-26T03:50:46.761Z,6.10
2019-01-26T03:53:17.268Z,6.10
2019-01-26T03:55:48.049Z,6.10
2019-01-26T03:58:18.095Z,6.20
2019-01-26T04:00:48.776Z,6.20
2019-01-26T04:03:18.825Z,6.20
2019-01-26T04:05:49.018Z,6.20
2019-01-26T04:08:19.243Z,6.20
2019-01-26T04:10:49.351Z,6.20
2019-01-26T04:13:20.765Z,6.20
2019-01-26T04:15:50.866Z,6.30
2019-01-26T04:18:20.922Z,6.30
2019-01-26T04:20:53.041Z,6.30
2019-01-26T04:23:35.773Z,6.40
2019-01-26T04:26:17.759Z,6.40
2019-01-26T04:28:59.961Z,6.40
2019-01-26T04:31:30.045Z,6.40
2019-01-26T04:34:00.302Z,6.50
2019-01-26T04:36:30.383Z,6.50
2019-01-26T04:39:00.518Z,6.50
2019-01-26T04:41:30.722Z,6.50
2019-01-26T04:44:00.847Z,6.50
2019-01-26T04:46:31.060Z,6.50
2019-01-26T04:49:02.615Z,6.50
2019-01-26T04:51:32.618Z,6.50
2019-01-26T04:54:02.806Z,6.50
2019-01-26T04:56:32.991Z,6.50
2019-01-26T04:59:03.185Z,6.60
2019-01-26T05:01:33.353Z,6.60
2019-01-26T05:04:04.734Z,6.60
2019-01-26T05:06:34.772Z,6.60
2019-01-26T05:09:08.005Z,6.60
2019-01-26T05:11:38.017Z,6.60
2019-01-26T05:14:08.213Z,6.60
2019-01-26T05:16:38.360Z,6.60
2019-01-26T05:19:08.665Z,6.60
2019-01-26T05:21:40.272Z,6.60
2019-01-26T05:24:10.336Z,6.70
2019-01-26T05:26:40.434Z,6.70
2019-01-26T05:29:10.584Z,6.70
2019-01-26T05:31:40.621Z,6.70
2019-01-26T05:34:10.798Z,6.70
2019-01-26T05:36:40.988Z,6.70
2019-01-26T05:39:11.233Z,6.70
2019-01-26T05:41:41.330Z,6.70
2019-01-26T05:44:12.086Z,6.70
2019-01-26T05:46:42.089Z,6.70
2019-01-26T05:49:12.139Z,6.70
2019-01-26T05:51:42.200Z,6.70
2019-01-26T05:54:12.313Z,6.70
2019-01-26T05:56:45.469Z,6.70
2019-01-26T05:59:15.692Z,6.80
2019-01-26T06:01:45.846Z,6.70
2019-01-26T06:04:16.153Z,6.70
2019-01-26T06:06:46.270Z,6.70
2019-01-26T06:09:16.764Z,6.70
2019-01-26T06:11:46.760Z,6.70
2019-01-26T06:14:16.865Z,6.70
2019-01-26T06:16:47.007Z,6.70
2019-01-26T06:19:17.051Z,6.60
2019-01-26T06:21:47.077Z,6.60
2019-01-26T06:24:17.114Z,6.60
2019-01-26T06:26:47.128Z,6.70
2019-01-26T06:29:17.173Z,6.60
2019-01-26T06:31:47.284Z,6.60
2019-01-26T06:34:17.394Z,6.60
2019-01-26T06:36:47.512Z,6.60
2019-01-26T06:39:17.568Z,6.60
2019-01-26T06:41:47.561Z,6.60
2019-01-26T06:44:17.590Z,6.60
2019-01-26T06:46:48.484Z,6.60
2019-01-26T06:49:18.695Z,6.60
2019-01-26T06:51:54.691Z,6.60
2019-01-26T06:54:24.905Z,6.60
2019-01-26T06:56:55.069Z,6.60
2019-01-26T06:59:25.102Z,6.60
2019-01-26T07:01:55.116Z,6.50
2019-01-26T07:04:34.038Z,6.60
2019-01-26T07:07:12.881Z,6.60
2019-01-26T07:09:42.982Z,6.60
2019-01-26T07:12:13.102Z,6.60
2019-01-26T07:14:43.223Z,6.60
2019-01-26T07:17:13.268Z,6.60
2019-01-26T07:19:43.335Z,6.60
2019-01-26T07:22:13.379Z,6.60
2019-01-26T07:24:43.406Z,6.60
2019-01-26T07:27:13.407Z,6.60
2019-01-26T07:29:43.468Z,6.70
2019-01-26T07:32:13.483Z,6.70
2019-01-26T07:34:43.694Z,6.70
2019-01-26T07:37:13.817Z,6.70
2019-01-26T07:39:44.298Z,6.70
2019-01-26T07:42:14.434Z,6.70
2019-01-26T07:44:45.566Z,6.70
2019-01-26T07:47:15.713Z,6.70
2019-01-26T07:49:45.899Z,6.70
2019-01-26T07:52:16.036Z,6.70
2019-01-26T07:54:46.545Z,6.70
2019-01-26T07:57:16.741Z,6.70
2019-01-26T07:59:46.825Z,6.70
2019-01-26T08:02:16.884Z,6.70
2019-01-26T08:04:46.974Z,6.70
2019-01-26T08:07:17.097Z,6.80
2019-01-26T08:09:47.146Z,6.90
2019-01-26T08:12:17.199Z,6.90
2019-01-26T08:14:47.233Z,6.90
2019-01-26T08:17:17.254Z,7.00
2019-01-26T08:19:47.308Z,7.00
2019-01-26T08:22:17.446Z,7.10
2019-01-26T08:24:47.806Z,7.10
2019-01-26T08:27:17.830Z,7.10
2019-01-26T08:29:48.044Z,7.10
2019-01-26T08:32:18.471Z,7.20
2019-01-26T08:34:48.529Z,7.20
2019-01-26T08:37:18.646Z,7.20
2019-01-26T08:39:49.012Z,7.20
2019-01-26T08:42:19.034Z,7.20
2019-01-26T08:44:50.796Z,7.30
2019-01-26T08:47:20.946Z,7.30
2019-01-26T08:49:51.012Z,7.40
2019-01-26T08:52:22.764Z,7.40
2019-01-26T08:54:53.185Z,7.50
2019-01-26T08:57:23.270Z,7.60
2019-01-26T08:59:53.468Z,7.60
2019-01-26T09:02:48.423Z,7.70
2019-01-26T09:05:18.525Z,7.70
2019-01-26T09:07:48.645Z,7.80
2019-01-26T09:10:19.204Z,7.90
2019-01-26T09:12:49.290Z,7.90
2019-01-26T09:15:19.457Z,8.00
2019-01-26T09:17:49.569Z,8.00
2019-01-26T09:20:19.772Z,8.00
2019-01-26T09:22:49.898Z,8.10
2019-01-26T09:25:19.937Z,8.10
2019-01-26T09:27:50.314Z,8.10
2019-01-26T09:30:21.807Z,8.10
2019-01-26T09:32:51.987Z,8.00
2019-01-26T09:35:22.113Z,8.00
2019-01-26T09:37:52.138Z,8.00
2019-01-26T09:40:22.198Z,8.00
2019-01-26T09:42:52.277Z,8.00
2019-01-26T09:45:24.743Z,8.00
2019-01-26T09:47:55.497Z,7.90
2019-01-26T09:50:25.655Z,7.90
2019-01-26T09:52:55.823Z,7.90
2019-01-26T09:55:27.273Z,7.90
2019-01-26T09:57:57.288Z,8.00
2019-01-26T10:00:27.503Z,8.10
2019-01-26T10:02:57.683Z,8.20
2019-01-26T10:05:27.867Z,8.20
2019-01-26T10:07:58.942Z,8.30
2019-01-26T10:10:29.169Z,8.30
2019-01-26T10:12:59.381Z,8.30
2019-01-26T10:15:30.994Z,8.30
2019-01-26T10:18:01.179Z,8.30
2019-01-26T10:20:32.942Z,8.30
2019-01-26T10:23:03.172Z,8.40
2019-01-26T10:25:33.372Z,8.50
2019-01-26T10:28:03.468Z,8.50
2019-01-26T10:30:38.925Z,8.50
2019-01-26T10:33:08.944Z,8.60
2019-01-26T10:36:03.888Z,8.60
2019-01-26T10:38:35.996Z,8.60
2019-01-26T10:41:22.074Z,8.60
2019-01-26T10:43:52.798Z,8.70
2019-01-26T10:46:25.382Z,8.70
2019-01-26T10:49:00.588Z,8.80
2019-01-26T10:51:27.255Z,8.90
2019-01-26T10:53:57.252Z,9.00
2019-01-26T10:56:27.415Z,9.10
2019-01-26T10:58:57.870Z,9.20
2019-01-26T11:01:27.929Z,9.30
2019-01-26T11:03:57.974Z,9.20
2019-01-26T11:06:28.316Z,9.30
2019-01-26T11:08:58.407Z,9.40
2019-01-26T11:11:29.988Z,9.50
2019-01-26T11:14:00.104Z,9.60
2019-01-26T11:16:30.349Z,9.70
2019-01-26T11:19:00.385Z,9.70
2019-01-26T11:21:30.507Z,9.70
2019-01-26T11:24:00.618Z,9.70
2019-01-26T11:26:30.779Z,9.70
2019-01-26T11:29:01.013Z,9.60
2019-01-26T11:31:31.581Z,9.70
2019-01-26T11:34:01.677Z,9.80
2019-01-26T11:36:31.794Z,9.80
2019-01-26T11:39:01.818Z,9.80
2019-01-26T11:41:32.020Z,9.70
2019-01-26T11:44:02.108Z,9.50
2019-01-26T11:46:38.974Z,9.40
2019-01-26T11:49:15.053Z,9.30
2019-01-26T11:52:10.557Z,9.40
2019-01-26T11:55:02.585Z,9.40
2019-01-26T11:57:35.567Z,9.40
2019-01-26T12:00:34.732Z,9.50
2019-01-26T12:03:12.303Z,9.70
2019-01-26T12:05:47.963Z,9.80
2019-01-26T12:08:19.573Z,9.90
2019-01-26T12:10:50.076Z,10.00
2019-01-26T12:13:20.121Z,10.10
2019-01-26T12:15:51.829Z,10.10
2019-01-26T12:18:21.943Z,10.10
2019-01-26T12:20:52.323Z,10.10
2019-01-26T12:23:22.780Z,10.20
2019-01-26T12:25:52.880Z,10.20
2019-01-26T12:28:22.951Z,10.10
2019-01-26T12:30:55.269Z,10.00
2019-01-26T12:33:25.361Z,9.80
2019-01-26T12:35:57.151Z,9.70
2019-01-26T12:38:27.324Z,9.50
2019-01-26T12:40:57.409Z,9.30
2019-01-26T12:43:27.634Z,9.20
2019-01-26T12:45:59.024Z,9.10
2019-01-26T12:48:31.317Z,9.10
2019-01-26T12:51:02.978Z,9.00
2019-01-26T12:53:37.068Z,8.80
2019-01-26T12:56:07.591Z,8.70
2019-01-26T12:58:37.681Z,8.50
2019-01-26T13:01:08.098Z,8.40
2019-01-26T13:03:40.254Z,8.30
2019-01-26T13:06:10.410Z,8.30
2019-01-26T13:08:42.206Z,8.40
2019-01-26T13:11:20.607Z,8.30
2019-01-26T13:13:51.994Z,8.40
2019-01-26T13:16:22.210Z,8.30
2019-01-26T13:18:52.355Z,8.30
2019-01-26T13:21:22.454Z,8.40
2019-01-26T13:23:52.607Z,8.40
2019-01-26T13:26:22.818Z,8.50
2019-01-26T13:28:52.901Z,8.50
2019-01-26T13:31:22.939Z,8.60
2019-01-26T13:33:53.000Z,8.70
2019-01-26T13:36:23.012Z,8.80
2019-01-26T13:38:53.236Z,8.90
2019-01-26T13:41:23.426Z,8.90
2019-01-26T13:43:54.421Z,9.00
2019-01-26T13:46:25.521Z,9.00
2019-01-26T13:48:56.087Z,9.10
2019-01-26T13:51:26.178Z,9.20
2019-01-26T13:53:56.257Z,9.30
2019-01-26T13:56:26.256Z,9.50
2019-01-26T13:58:56.328Z,9.70
2019-01-26T14:01:26.449Z,9.80
2019-01-26T14:03:58.383Z,10.00
2019-01-26T14:06:28.391Z,9.90
2019-01-26T14:08:58.441Z,9.90
2019-01-26T14:11:28.466Z,9.80
2019-01-26T14:13:58.506Z,9.70
2019-01-26T14:16:28.755Z,9.70
2019-01-26T14:18:58.896Z,9.60
2019-01-26T14:21:29.057Z,9.50
2019-01-26T14:24:02.461Z,9.50
2019-01-26T14:26:32.496Z,9.40
2019-01-26T14:29:02.607Z,9.20
2019-01-26T14:31:35.074Z,9.00
2019-01-26T14:34:05.323Z,8.90
2019-01-26T14:36:36.068Z,8.70
2019-01-26T14:39:09.439Z,8.70
2019-01-26T14:41:39.924Z,8.50
2019-01-26T14:44:10.022Z,8.40
2019-01-26T14:46:40.142Z,8.30
2019-01-26T14:49:10.194Z,8.20
2019-01-26T14:51:40.301Z,8.20
2019-01-26T14:54:10.419Z,8.10
2019-01-26T14:56:40.615Z,8.00
2019-01-26T14:59:10.891Z,7.90
2019-01-26T15:01:40.981Z,7.90
2019-01-26T15:04:12.306Z,7.90
2019-01-26T15:06:42.408Z,7.90
2019-01-26T15:09:13.802Z,7.80
2019-01-26T15:11:43.832Z,7.80
2019-01-26T15:14:14.321Z,7.80
2019-01-26T15:16:44.483Z,7.80
2019-01-26T15:19:14.734Z,7.80
2019-01-26T15:21:44.941Z,7.70
2019-01-26T15:24:15.074Z,7.70
2019-01-26T15:26:45.124Z,7.70
2019-01-26T15:29:15.357Z,7.70
2019-01-26T15:31:47.055Z,7.80
2019-01-26T15:34:17.121Z,7.70
2019-01-26T15:36:47.131Z,7.70
2019-01-26T15:39:17.182Z,7.70
2019-01-26T15:41:47.316Z,7.70
2019-01-26T15:44:17.396Z,7.70
2019-01-26T15:46:47.527Z,7.70
2019-01-26T15:49:17.703Z,7.70
2019-01-26T15:51:47.921Z,7.70
2019-01-26T15:54:18.096Z,7.70
2019-01-26T15:56:48.228Z,7.70
2019-01-26T15:59:19.496Z,7.70
2019-01-26T16:01:51.290Z,7.60
2019-01-26T16:04:21.431Z,7.70
2019-01-26T16:06:51.512Z,7.70
2019-01-26T16:09:22.953Z,7.60
2019-01-26T16:11:55.114Z,7.50
2019-01-26T16:14:26.554Z,7.50
2019-01-26T16:16:56.695Z,7.50
2019-01-26T16:19:26.892Z,7.50
2019-01-26T16:21:57.214Z,7.50
2019-01-26T16:24:27.310Z,7.50
2019-01-26T16:26:57.663Z,7.50
2019-01-26T16:29:27.755Z,7.40
2019-01-26T16:31:57.922Z,7.50
2019-01-26T16:34:28.112Z,7.40
2019-01-26T16:36:58.768Z,7.40
2019-01-26T16:39:28.915Z,7.40
2019-01-26T16:41:59.009Z,7.40
2019-01-26T16:44:32.795Z,7.60
2019-01-26T16:47:03.213Z,7.80
2019-01-26T16:49:33.363Z,7.80
2019-01-26T16:52:03.462Z,7.80
2019-01-26T16:54:33.726Z,7.70
2019-01-26T16:57:05.479Z,7.70
2019-01-26T16:59:35.515Z,7.60
2019-01-26T17:02:08.096Z,7.60
2019-01-26T17:04:38.147Z,7.50
2019-01-26T17:07:08.171Z,7.50
2019-01-26T17:09:38.346Z,7.50
2019-01-26T17:12:08.918Z,7.50
2019-01-26T17:14:39.338Z,7.50
2019-01-26T17:17:10.838Z,7.50
2019-01-26T17:19:41.539Z,7.50
2019-01-26T17:22:12.104Z,7.50
2019-01-26T17:24:42.271Z,7.50
2019-01-26T17:27:12.356Z,7.50
2019-01-26T17:29:42.400Z,7.50
2019-01-26T17:32:12.628Z,7.50
2019-01-26T17:34:42.745Z,7.50
2019-01-26T17:37:12.851Z,7.50
2019-01-26T17:39:44.154Z,7.50
2019-01-26T17:42:14.306Z,7.60
2019-01-26T17:44:44.781Z,7.50
2019-01-26T17:47:15.946Z,7.50
2019-01-26T17:49:47.889Z,7.50
2019-01-26T17:52:25.840Z,7.50
2019-01-26T17:54:55.939Z,7.50
2019-01-26T17:57:26.052Z,7.60
2019-01-26T17:59:56.116Z,7.60
2019-01-26T18:02:26.200Z,7.60
2019-01-26T18:04:56.240Z,7.60
2019-01-26T18:07:26.294Z,7.60
2019-01-26T18:09:59.400Z,7.60
2019-01-26T18:12:29.518Z,7.60
2019-01-26T18:15:00.246Z,7.60
2019-01-26T18:17:30.254Z,7.60
2019-01-26T18:20:00.460Z,7.60
2019-01-26T18:22:33.956Z,7.50
2019-01-26T18:25:04.357Z,7.50
2019-01-26T18:27:35.118Z,7.50
2019-01-26T18:30:05.665Z,7.50
2019-01-26T18:32:35.869Z,7.50
2019-01-26T18:35:06.704Z,7.50
2019-01-26T18:37:36.770Z,7.60
2019-01-26T18:40:09.427Z,7.60
2019-01-26T18:42:39.507Z,7.60
2019-01-26T18:45:11.724Z,7.60
2019-01-26T18:47:43.196Z,7.60
2019-01-26T18:50:32.993Z,7.60
2019-01-26T18:53:03.067Z,7.60
2019-01-26T18:55:33.230Z,7.60
2019-01-26T18:58:04.343Z,7.60
2019-01-26T19:00:37.487Z,7.60
2019-01-26T19:03:34.081Z,7.60
2019-01-26T19:06:05.628Z,7.60
2019-01-26T19:08:37.551Z,7.50
2019-01-26T19:11:07.696Z,7.50
2019-01-26T19:13:39.489Z,7.50
2019-01-26T19:16:09.604Z,7.50
2019-01-26T19:18:40.057Z,7.50
2019-01-26T19:21:10.263Z,7.50
2019-01-26T19:23:40.377Z,7.50
2019-01-26T19:26:10.576Z,7.50
2019-01-26T19:28:40.651Z,7.50
2019-01-26T19:31:12.121Z,7.50
2019-01-26T19:33:44.522Z,7.50
2019-01-26T19:36:14.612Z,7.50
2019-01-26T19:38:48.360Z,7.60
2019-01-26T19:41:18.481Z,7.60
2019-01-26T19:43:48.650Z,7.60
2019-01-26T19:46:18.804Z,7.60
2019-01-26T19:48:50.216Z,7.60
2019-01-26T19:51:21.774Z,7.60
2019-01-26T19:53:51.945Z,7.60
2019-01-26T19:56:23.987Z,7.60
2019-01-26T19:58:53.793Z,7.60
2019-01-26T20:01:23.955Z,7.60
2019-01-26T20:03:54.138Z,7.60
2019-01-26T20:06:24.233Z,7.50
2019-01-26T20:08:58.363Z,7.50
2019-01-26T20:11:28.599Z,7.40
2019-01-26T20:13:59.604Z,7.40
2019-01-26T20:16:36.311Z,7.50
2019-01-26T20:19:01.548Z,7.50
2019-01-26T20:21:33.393Z,7.50
2019-01-26T20:24:03.580Z,7.50
2019-01-26T20:26:33.741Z,7.50
2019-01-26T20:29:04.065Z,7.60
2019-01-26T20:31:34.270Z,7.60
2019-01-26T20:34:04.566Z,7.60
2019-01-26T20:36:34.657Z,7.60
2019-01-26T20:39:08.028Z,7.60
2019-01-26T20:41:38.302Z,7.60
2019-01-26T20:44:08.398Z,7.50
2019-01-26T20:46:39.229Z,7.50
2019-01-26T20:49:15.368Z,7.50
2019-01-26T20:51:45.554Z,7.50
2019-01-26T20:54:15.722Z,7.60
2019-01-26T20:56:45.950Z,7.60
2019-01-26T20:59:17.632Z,7.60
2019-01-26T21:01:47.959Z,7.70
2019-01-26T21:04:18.065Z,7.70
2019-01-26T21:06:48.240Z,7.70
2019-01-26T21:09:19.776Z,7.70
2019-01-26T21:11:49.922Z,7.70
2019-01-26T21:14:21.090Z,7.70
2019-01-26T21:16:51.497Z,7.70
2019-01-26T21:19:21.548Z,7.80
2019-01-26T21:21:51.834Z,7.80
2019-01-26T21:24:21.897Z,7.80
2019-01-26T21:26:51.971Z,7.80
2019-01-26T21:29:22.057Z,7.80
2019-01-26T21:31:52.111Z,7.80
2019-01-26T21:34:25.759Z,7.80
2019-01-26T21:36:55.476Z,7.80
2019-01-26T21:39:28.808Z,7.80
2019-01-26T21:41:58.893Z,7.90
2019-01-26T21:44:31.291Z,7.90
2019-01-26T21:47:01.513Z,7.90
2019-01-26T21:49:31.691Z,7.90
2019-01-26T21:52:01.909Z,7.90
2019-01-26T21:54:32.495Z,7.90
2019-01-26T21:57:02.613Z,7.90
2019-01-26T21:59:33.004Z,7.90
2019-01-26T22:02:03.121Z,7.90
2019-01-26T22:04:33.336Z,8.00
2019-01-26T22:07:04.398Z,8.00
2019-01-26T22:09:36.202Z,8.00
2019-01-26T22:12:06.693Z,8.00
2019-01-26T22:14:38.552Z,8.00
2019-01-26T22:17:11.167Z,8.00
2019-01-26T22:19:41.378Z,8.00
2019-01-26T22:22:11.547Z,8.00
2019-01-26T22:24:41.619Z,8.10
2019-01-26T22:27:11.751Z,8.10
2019-01-26T22:29:42.425Z,8.10
2019-01-26T22:32:13.053Z,8.10
2019-01-26T22:34:43.152Z,8.10
2019-01-26T22:37:13.343Z,8.00
2019-01-26T22:39:43.473Z,8.00
2019-01-26T22:42:14.579Z,8.00
2019-01-26T22:44:45.796Z,8.00
2019-01-26T22:47:15.842Z,7.90
2019-01-26T22:49:46.038Z,7.90
2019-01-26T22:52:16.159Z,7.90
2019-01-26T22:54:47.044Z,7.80
2019-01-26T22:57:17.245Z,7.70
2019-01-26T22:59:47.355Z,7.70
2019-01-26T23:02:17.430Z,7.60
2019-01-26T23:05:33.324Z,7.60
2019-01-26T23:08:09.274Z,7.60
2019-01-26T23:11:04.414Z,7.60
2019-01-26T23:14:02.359Z,7.60
2019-01-26T23:17:18.150Z,7.50
2019-01-26T23:20:06.843Z,7.50
2019-01-26T23:23:28.840Z,7.50
2019-01-26T23:26:30.852Z,7.40
2019-01-26T23:29:51.095Z,7.40
2019-01-26T23:32:21.565Z,7.40
2019-01-26T23:34:51.797Z,7.40
2019-01-26T23:37:22.034Z,7.40
2019-01-26T23:39:52.720Z,7.40
2019-01-26T23:42:22.798Z,7.40
2019-01-26T23:44:53.009Z,7.40
2019-01-26T23:47:23.276Z,7.40
2019-01-26T23:49:53.397Z,7.40
2019-01-26T23:52:23.510Z,7.40
2019-01-26T23:54:53.609Z,7.40
2019-01-26T23:57:28.028Z,7.40
2019-01-26T23:59:59.021Z,7.40
